sensor_id;sensor_type;location;lat;lon;timestamp;P1;durP1;ratioP1;P2;durP2;ratioP2
23747;SDS011;12054;53.662;10.126;2023-04-25T00:01:59;7.18;;;4.13;;
23747;SDS011;12054;53.662;10.126;2023-04-25T00:04:25;7.53;;;4.18;;
23747;SDS011;12054;53.662;10.126;2023-04-25T00:06:53;9.50;;;4.70;;
23747;SDS011;12054;53.662;10.126;2023-04-25T00:09:19;9.93;;;3.92;;
23747;SDS011;12054;53.662;10.126;2023-04-25T00:11:47;11.25;;;4.72;;
23747;SDS011;12054;53.662;10.126;2023-04-25T00:14:19;11.73;;;4.60;;
23747;SDS011;12054;53.662;10.126;2023-04-25T00:16:45;13.43;;;4.45;;
23747;SDS011;12054;53.662;10.126;2023-04-25T00:19:31;11.85;;;4.22;;
23747;SDS011;12054;53.662;10.126;2023-04-25T00:21:59;15.75;;;3.92;;
23747;SDS011;12054;53.662;10.126;2023-04-25T00:24:25;11.38;;;4.03;;
23747;SDS011;12054;53.662;10.126;2023-04-25T00:26:52;18.52;;;4.45;;
23747;SDS011;12054;53.662;10.126;2023-04-25T00:29:43;11.90;;;4.30;;
23747;SDS011;12054;53.662;10.126;2023-04-25T00:32:17;10.77;;;4.15;;
23747;SDS011;12054;53.662;10.126;2023-04-25T00:34:49;16.23;;;4.15;;
23747;SDS011;12054;53.662;10.126;2023-04-25T00:37:15;11.90;;;4.20;;
23747;SDS011;12054;53.662;10.126;2023-04-25T00:39:41;14.05;;;3.45;;
23747;SDS011;12054;53.662;10.126;2023-04-25T00:42:06;18.45;;;3.90;;
23747;SDS011;12054;53.662;10.126;2023-04-25T00:44:33;16.20;;;3.95;;
23747;SDS011;12054;53.662;10.126;2023-04-25T00:47:01;12.82;;;3.47;;
23747;SDS011;12054;53.662;10.126;2023-04-25T00:49:30;12.63;;;3.97;;
23747;SDS011;12054;53.662;10.126;2023-04-25T00:51:58;30.17;;;4.00;;
23747;SDS011;12054;53.662;10.126;2023-04-25T00:54:24;23.15;;;4.00;;
23747;SDS011;12054;53.662;10.126;2023-04-25T00:56:50;15.48;;;4.00;;
23747;SDS011;12054;53.662;10.126;2023-04-25T00:59:18;8.32;;;3.50;;
23747;SDS011;12054;53.662;10.126;2023-04-25T01:01:51;12.55;;;3.38;;
23747;SDS011;12054;53.662;10.126;2023-04-25T01:04:26;13.68;;;3.10;;
23747;SDS011;12054;53.662;10.126;2023-04-25T01:06:53;18.83;;;3.53;;
23747;SDS011;12054;53.662;10.126;2023-04-25T01:09:19;13.65;;;3.55;;
23747;SDS011;12054;53.662;10.126;2023-04-25T01:11:45;9.77;;;3.22;;
23747;SDS011;12054;53.662;10.126;2023-04-25T01:14:11;15.45;;;3.67;;
23747;SDS011;12054;53.662;10.126;2023-04-25T01:16:36;15.27;;;3.80;;
23747;SDS011;12054;53.662;10.126;2023-04-25T01:19:04;15.27;;;3.60;;
23747;SDS011;12054;53.662;10.126;2023-04-25T01:21:35;16.25;;;3.60;;
23747;SDS011;12054;53.662;10.126;2023-04-25T01:24:01;10.57;;;3.25;;
23747;SDS011;12054;53.662;10.126;2023-04-25T01:26:27;18.23;;;4.05;;
23747;SDS011;12054;53.662;10.126;2023-04-25T01:28:53;16.02;;;3.97;;
23747;SDS011;12054;53.662;10.126;2023-04-25T01:31:19;13.27;;;3.28;;
23747;SDS011;12054;53.662;10.126;2023-04-25T01:33:45;17.92;;;3.65;;
23747;SDS011;12054;53.662;10.126;2023-04-25T01:36:11;14.68;;;3.78;;
23747;SDS011;12054;53.662;10.126;2023-04-25T01:38:38;20.58;;;4.20;;
23747;SDS011;12054;53.662;10.126;2023-04-25T01:41:05;10.95;;;2.97;;
23747;SDS011;12054;53.662;10.126;2023-04-25T01:43:30;14.93;;;3.90;;
23747;SDS011;12054;53.662;10.126;2023-04-25T01:45:56;16.70;;;4.03;;
23747;SDS011;12054;53.662;10.126;2023-04-25T01:48:22;12.63;;;3.90;;
23747;SDS011;12054;53.662;10.126;2023-04-25T01:50:47;17.95;;;3.78;;
23747;SDS011;12054;53.662;10.126;2023-04-25T01:53:13;19.00;;;3.70;;
23747;SDS011;12054;53.662;10.126;2023-04-25T01:55:39;16.42;;;3.95;;
23747;SDS011;12054;53.662;10.126;2023-04-25T01:58:05;14.43;;;3.72;;
23747;SDS011;12054;53.662;10.126;2023-04-25T02:00:37;17.13;;;3.70;;
23747;SDS011;12054;53.662;10.126;2023-04-25T02:03:04;17.25;;;4.10;;
23747;SDS011;12054;53.662;10.126;2023-04-25T02:05:39;19.15;;;4.47;;
23747;SDS011;12054;53.662;10.126;2023-04-25T02:08:05;23.63;;;4.05;;
23747;SDS011;12054;53.662;10.126;2023-04-25T02:10:32;15.15;;;3.63;;
23747;SDS011;12054;53.662;10.126;2023-04-25T02:12:59;16.42;;;4.18;;
23747;SDS011;12054;53.662;10.126;2023-04-25T02:15:24;19.08;;;4.15;;
23747;SDS011;12054;53.662;10.126;2023-04-25T02:17:50;16.63;;;3.75;;
23747;SDS011;12054;53.662;10.126;2023-04-25T02:20:17;14.20;;;4.35;;
23747;SDS011;12054;53.662;10.126;2023-04-25T02:22:44;16.92;;;3.40;;
23747;SDS011;12054;53.662;10.126;2023-04-25T02:25:10;16.92;;;4.15;;
23747;SDS011;12054;53.662;10.126;2023-04-25T02:27:36;16.40;;;3.13;;
23747;SDS011;12054;53.662;10.126;2023-04-25T02:30:02;12.60;;;3.42;;
23747;SDS011;12054;53.662;10.126;2023-04-25T02:32:29;16.73;;;3.58;;
23747;SDS011;12054;53.662;10.126;2023-04-25T02:34:55;13.45;;;3.58;;
23747;SDS011;12054;53.662;10.126;2023-04-25T02:37:24;15.73;;;3.63;;
23747;SDS011;12054;53.662;10.126;2023-04-25T02:39:50;14.70;;;3.50;;
23747;SDS011;12054;53.662;10.126;2023-04-25T02:42:15;19.25;;;3.70;;
23747;SDS011;12054;53.662;10.126;2023-04-25T02:44:41;13.98;;;3.25;;
23747;SDS011;12054;53.662;10.126;2023-04-25T02:47:06;12.10;;;2.97;;
23747;SDS011;12054;53.662;10.126;2023-04-25T02:49:32;17.38;;;3.97;;
23747;SDS011;12054;53.662;10.126;2023-04-25T02:51:57;11.05;;;3.33;;
23747;SDS011;12054;53.662;10.126;2023-04-25T02:54:23;15.82;;;3.00;;
23747;SDS011;12054;53.662;10.126;2023-04-25T02:56:48;11.65;;;3.28;;
23747;SDS011;12054;53.662;10.126;2023-04-25T02:59:14;18.52;;;3.25;;
23747;SDS011;12054;53.662;10.126;2023-04-25T03:01:39;20.42;;;4.03;;
23747;SDS011;12054;53.662;10.126;2023-04-25T03:04:05;12.82;;;3.08;;
23747;SDS011;12054;53.662;10.126;2023-04-25T03:06:30;11.80;;;3.22;;
23747;SDS011;12054;53.662;10.126;2023-04-25T03:08:56;14.73;;;3.38;;
23747;SDS011;12054;53.662;10.126;2023-04-25T03:11:21;15.90;;;3.10;;
23747;SDS011;12054;53.662;10.126;2023-04-25T03:13:47;15.60;;;3.00;;
23747;SDS011;12054;53.662;10.126;2023-04-25T03:16:12;15.95;;;3.92;;
23747;SDS011;12054;53.662;10.126;2023-04-25T03:18:38;12.07;;;3.25;;
23747;SDS011;12054;53.662;10.126;2023-04-25T03:21:03;19.67;;;3.65;;
23747;SDS011;12054;53.662;10.126;2023-04-25T03:23:29;10.57;;;2.97;;
23747;SDS011;12054;53.662;10.126;2023-04-25T03:25:55;12.63;;;3.35;;
23747;SDS011;12054;53.662;10.126;2023-04-25T03:28:21;15.00;;;3.75;;
23747;SDS011;12054;53.662;10.126;2023-04-25T03:30:47;17.65;;;2.88;;
23747;SDS011;12054;53.662;10.126;2023-04-25T03:33:12;15.15;;;3.67;;
23747;SDS011;12054;53.662;10.126;2023-04-25T03:35:38;11.75;;;3.03;;
23747;SDS011;12054;53.662;10.126;2023-04-25T03:38:03;19.40;;;3.55;;
23747;SDS011;12054;53.662;10.126;2023-04-25T03:40:29;14.48;;;3.65;;
23747;SDS011;12054;53.662;10.126;2023-04-25T03:42:54;10.18;;;2.85;;
23747;SDS011;12054;53.662;10.126;2023-04-25T03:45:20;13.82;;;3.38;;
23747;SDS011;12054;53.662;10.126;2023-04-25T03:47:45;19.90;;;3.58;;
23747;SDS011;12054;53.662;10.126;2023-04-25T03:50:11;14.50;;;2.90;;
23747;SDS011;12054;53.662;10.126;2023-04-25T03:52:36;13.40;;;2.95;;
23747;SDS011;12054;53.662;10.126;2023-04-25T03:55:02;13.20;;;3.20;;
23747;SDS011;12054;53.662;10.126;2023-04-25T03:57:29;14.70;;;3.03;;
23747;SDS011;12054;53.662;10.126;2023-04-25T03:59:56;15.57;;;3.58;;
23747;SDS011;12054;53.662;10.126;2023-04-25T04:02:21;18.50;;;3.28;;
23747;SDS011;12054;53.662;10.126;2023-04-25T04:04:47;17.35;;;3.30;;
23747;SDS011;12054;53.662;10.126;2023-04-25T04:07:12;13.40;;;2.65;;
23747;SDS011;12054;53.662;10.126;2023-04-25T04:09:38;13.38;;;2.75;;
23747;SDS011;12054;53.662;10.126;2023-04-25T04:12:04;14.98;;;2.90;;
23747;SDS011;12054;53.662;10.126;2023-04-25T04:14:29;11.10;;;3.08;;
23747;SDS011;12054;53.662;10.126;2023-04-25T04:16:55;14.27;;;2.97;;
23747;SDS011;12054;53.662;10.126;2023-04-25T04:19:20;9.93;;;2.78;;
23747;SDS011;12054;53.662;10.126;2023-04-25T04:21:46;14.15;;;3.10;;
23747;SDS011;12054;53.662;10.126;2023-04-25T04:24:12;12.85;;;2.95;;
23747;SDS011;12054;53.662;10.126;2023-04-25T04:26:37;13.20;;;2.92;;
23747;SDS011;12054;53.662;10.126;2023-04-25T04:29:03;12.93;;;3.53;;
23747;SDS011;12054;53.662;10.126;2023-04-25T04:31:29;10.50;;;3.10;;
23747;SDS011;12054;53.662;10.126;2023-04-25T04:33:54;15.55;;;3.35;;
23747;SDS011;12054;53.662;10.126;2023-04-25T04:36:20;14.63;;;2.50;;
23747;SDS011;12054;53.662;10.126;2023-04-25T04:38:47;20.52;;;3.20;;
23747;SDS011;12054;53.662;10.126;2023-04-25T04:41:13;12.98;;;2.50;;
23747;SDS011;12054;53.662;10.126;2023-04-25T04:43:39;12.85;;;2.60;;
23747;SDS011;12054;53.662;10.126;2023-04-25T04:46:04;9.88;;;2.63;;
23747;SDS011;12054;53.662;10.126;2023-04-25T04:48:33;8.75;;;2.50;;
23747;SDS011;12054;53.662;10.126;2023-04-25T04:50:59;12.52;;;2.90;;
23747;SDS011;12054;53.662;10.126;2023-04-25T04:53:25;11.00;;;2.67;;
23747;SDS011;12054;53.662;10.126;2023-04-25T04:55:50;9.68;;;2.40;;
23747;SDS011;12054;53.662;10.126;2023-04-25T04:58:16;9.10;;;2.72;;
23747;SDS011;12054;53.662;10.126;2023-04-25T05:00:41;16.50;;;3.35;;
23747;SDS011;12054;53.662;10.126;2023-04-25T05:03:07;10.20;;;2.67;;
23747;SDS011;12054;53.662;10.126;2023-04-25T05:05:33;12.43;;;2.97;;
23747;SDS011;12054;53.662;10.126;2023-04-25T05:07:58;13.70;;;2.80;;
23747;SDS011;12054;53.662;10.126;2023-04-25T05:10:24;13.93;;;2.97;;
23747;SDS011;12054;53.662;10.126;2023-04-25T05:12:50;11.15;;;2.63;;
23747;SDS011;12054;53.662;10.126;2023-04-25T05:15:15;14.70;;;3.55;;
23747;SDS011;12054;53.662;10.126;2023-04-25T05:17:41;17.85;;;2.97;;
23747;SDS011;12054;53.662;10.126;2023-04-25T05:20:07;11.20;;;3.05;;
23747;SDS011;12054;53.662;10.126;2023-04-25T05:22:34;11.27;;;2.45;;
23747;SDS011;12054;53.662;10.126;2023-04-25T05:25:00;12.82;;;2.80;;
23747;SDS011;12054;53.662;10.126;2023-04-25T05:27:25;15.18;;;3.33;;
23747;SDS011;12054;53.662;10.126;2023-04-25T05:29:51;10.50;;;2.65;;
23747;SDS011;12054;53.662;10.126;2023-04-25T05:32:17;9.25;;;2.35;;
23747;SDS011;12054;53.662;10.126;2023-04-25T05:34:43;10.00;;;2.70;;
23747;SDS011;12054;53.662;10.126;2023-04-25T05:37:11;12.38;;;2.47;;
23747;SDS011;12054;53.662;10.126;2023-04-25T05:39:37;8.95;;;2.10;;
23747;SDS011;12054;53.662;10.126;2023-04-25T05:42:02;12.13;;;2.33;;
23747;SDS011;12054;53.662;10.126;2023-04-25T05:44:28;8.38;;;2.35;;
23747;SDS011;12054;53.662;10.126;2023-04-25T05:46:54;12.15;;;2.40;;
23747;SDS011;12054;53.662;10.126;2023-04-25T05:49:20;8.27;;;2.40;;
23747;SDS011;12054;53.662;10.126;2023-04-25T05:51:46;7.28;;;1.90;;
23747;SDS011;12054;53.662;10.126;2023-04-25T05:54:12;8.13;;;2.25;;
23747;SDS011;12054;53.662;10.126;2023-04-25T05:56:37;13.10;;;2.65;;
23747;SDS011;12054;53.662;10.126;2023-04-25T05:59:03;10.48;;;2.53;;
23747;SDS011;12054;53.662;10.126;2023-04-25T06:01:28;6.60;;;2.38;;
23747;SDS011;12054;53.662;10.126;2023-04-25T06:03:54;5.82;;;1.83;;
23747;SDS011;12054;53.662;10.126;2023-04-25T06:06:19;7.82;;;2.42;;
23747;SDS011;12054;53.662;10.126;2023-04-25T06:08:45;13.40;;;2.28;;
23747;SDS011;12054;53.662;10.126;2023-04-25T06:11:11;10.52;;;2.17;;
23747;SDS011;12054;53.662;10.126;2023-04-25T06:13:42;9.50;;;2.25;;
23747;SDS011;12054;53.662;10.126;2023-04-25T06:16:07;7.65;;;2.80;;
23747;SDS011;12054;53.662;10.126;2023-04-25T06:18:33;10.98;;;2.70;;
23747;SDS011;12054;53.662;10.126;2023-04-25T06:20:58;11.18;;;2.45;;
23747;SDS011;12054;53.662;10.126;2023-04-25T06:26:52;16.48;;;2.72;;
23747;SDS011;12054;53.662;10.126;2023-04-25T06:29:18;10.70;;;2.58;;
23747;SDS011;12054;53.662;10.126;2023-04-25T06:31:43;10.65;;;2.75;;
23747;SDS011;12054;53.662;10.126;2023-04-25T06:34:09;11.50;;;2.88;;
23747;SDS011;12054;53.662;10.126;2023-04-25T06:36:35;7.65;;;2.55;;
23747;SDS011;12054;53.662;10.126;2023-04-25T06:39:00;10.93;;;2.85;;
23747;SDS011;12054;53.662;10.126;2023-04-25T06:41:26;13.10;;;2.65;;
23747;SDS011;12054;53.662;10.126;2023-04-25T06:43:51;13.68;;;3.38;;
23747;SDS011;12054;53.662;10.126;2023-04-25T06:46:16;15.95;;;2.70;;
23747;SDS011;12054;53.662;10.126;2023-04-25T06:48:42;8.23;;;2.10;;
23747;SDS011;12054;53.662;10.126;2023-04-25T06:51:07;8.32;;;2.10;;
23747;SDS011;12054;53.662;10.126;2023-04-25T06:53:33;14.27;;;2.78;;
23747;SDS011;12054;53.662;10.126;2023-04-25T06:55:59;13.32;;;2.97;;
23747;SDS011;12054;53.662;10.126;2023-04-25T06:58:25;9.48;;;2.67;;
23747;SDS011;12054;53.662;10.126;2023-04-25T07:00:51;11.45;;;2.55;;
23747;SDS011;12054;53.662;10.126;2023-04-25T07:03:16;13.27;;;2.50;;
23747;SDS011;12054;53.662;10.126;2023-04-25T07:05:42;16.90;;;3.33;;
23747;SDS011;12054;53.662;10.126;2023-04-25T07:08:08;10.65;;;2.58;;
23747;SDS011;12054;53.662;10.126;2023-04-25T07:10:34;11.05;;;2.42;;
23747;SDS011;12054;53.662;10.126;2023-04-25T07:13:00;14.27;;;3.10;;
23747;SDS011;12054;53.662;10.126;2023-04-25T07:15:25;13.40;;;2.55;;
23747;SDS011;12054;53.662;10.126;2023-04-25T07:17:51;15.90;;;2.72;;
23747;SDS011;12054;53.662;10.126;2023-04-25T07:20:16;12.05;;;2.00;;
23747;SDS011;12054;53.662;10.126;2023-04-25T07:22:42;10.98;;;2.40;;
23747;SDS011;12054;53.662;10.126;2023-04-25T07:25:07;11.10;;;2.45;;
23747;SDS011;12054;53.662;10.126;2023-04-25T07:27:33;11.77;;;1.98;;
23747;SDS011;12054;53.662;10.126;2023-04-25T07:29:59;6.25;;;1.67;;
23747;SDS011;12054;53.662;10.126;2023-04-25T07:32:25;6.38;;;1.80;;
23747;SDS011;12054;53.662;10.126;2023-04-25T07:34:51;5.97;;;1.80;;
23747;SDS011;12054;53.662;10.126;2023-04-25T07:37:17;5.57;;;1.42;;
23747;SDS011;12054;53.662;10.126;2023-04-25T07:39:43;6.03;;;1.77;;
23747;SDS011;12054;53.662;10.126;2023-04-25T07:42:11;6.00;;;1.52;;
23747;SDS011;12054;53.662;10.126;2023-04-25T07:44:36;9.98;;;1.77;;
23747;SDS011;12054;53.662;10.126;2023-04-25T07:47:07;12.50;;;1.80;;
23747;SDS011;12054;53.662;10.126;2023-04-25T07:49:33;9.80;;;1.67;;
23747;SDS011;12054;53.662;10.126;2023-04-25T07:52:02;8.00;;;1.77;;
23747;SDS011;12054;53.662;10.126;2023-04-25T07:54:30;8.88;;;1.95;;
23747;SDS011;12054;53.662;10.126;2023-04-25T07:56:56;5.07;;;1.83;;
23747;SDS011;12054;53.662;10.126;2023-04-25T07:59:21;5.70;;;1.75;;
23747;SDS011;12054;53.662;10.126;2023-04-25T08:01:47;12.40;;;2.10;;
23747;SDS011;12054;53.662;10.126;2023-04-25T08:04:12;8.60;;;2.10;;
23747;SDS011;12054;53.662;10.126;2023-04-25T08:06:43;4.47;;;1.67;;
23747;SDS011;12054;53.662;10.126;2023-04-25T08:09:10;11.63;;;2.00;;
23747;SDS011;12054;53.662;10.126;2023-04-25T08:11:36;7.85;;;1.95;;
23747;SDS011;12054;53.662;10.126;2023-04-25T08:14:02;8.68;;;1.90;;
23747;SDS011;12054;53.662;10.126;2023-04-25T08:16:27;12.70;;;1.92;;
23747;SDS011;12054;53.662;10.126;2023-04-25T08:18:53;7.57;;;1.92;;
23747;SDS011;12054;53.662;10.126;2023-04-25T08:21:19;10.00;;;2.25;;
23747;SDS011;12054;53.662;10.126;2023-04-25T08:23:45;7.22;;;1.63;;
23747;SDS011;12054;53.662;10.126;2023-04-25T08:26:10;5.72;;;1.50;;
23747;SDS011;12054;53.662;10.126;2023-04-25T08:28:45;9.27;;;2.00;;
23747;SDS011;12054;53.662;10.126;2023-04-25T08:31:11;6.45;;;1.55;;
23747;SDS011;12054;53.662;10.126;2023-04-25T08:33:37;4.78;;;1.25;;
23747;SDS011;12054;53.662;10.126;2023-04-25T08:36:02;5.60;;;1.25;;
23747;SDS011;12054;53.662;10.126;2023-04-25T08:38:28;8.13;;;1.58;;
23747;SDS011;12054;53.662;10.126;2023-04-25T08:40:54;4.20;;;1.13;;
23747;SDS011;12054;53.662;10.126;2023-04-25T08:43:21;8.02;;;1.30;;
23747;SDS011;12054;53.662;10.126;2023-04-25T08:45:49;5.63;;;1.30;;
23747;SDS011;12054;53.662;10.126;2023-04-25T08:48:16;4.82;;;1.48;;
23747;SDS011;12054;53.662;10.126;2023-04-25T08:50:54;7.07;;;1.45;;
23747;SDS011;12054;53.662;10.126;2023-04-25T08:53:27;7.10;;;1.55;;
23747;SDS011;12054;53.662;10.126;2023-04-25T08:55:55;8.25;;;1.60;;
23747;SDS011;12054;53.662;10.126;2023-04-25T08:58:22;5.32;;;1.67;;
23747;SDS011;12054;53.662;10.126;2023-04-25T09:00:48;11.57;;;1.70;;
23747;SDS011;12054;53.662;10.126;2023-04-25T09:03:14;6.57;;;2.05;;
23747;SDS011;12054;53.662;10.126;2023-04-25T09:05:41;5.82;;;1.90;;
23747;SDS011;12054;53.662;10.126;2023-04-25T09:08:07;8.25;;;1.48;;
23747;SDS011;12054;53.662;10.126;2023-04-25T09:10:33;9.40;;;1.85;;
23747;SDS011;12054;53.662;10.126;2023-04-25T09:13:09;9.57;;;1.63;;
23747;SDS011;12054;53.662;10.126;2023-04-25T09:15:55;8.55;;;2.00;;
23747;SDS011;12054;53.662;10.126;2023-04-25T09:18:22;8.55;;;1.95;;
23747;SDS011;12054;53.662;10.126;2023-04-25T09:21:05;7.63;;;2.55;;
23747;SDS011;12054;53.662;10.126;2023-04-25T09:23:38;13.07;;;1.75;;
23747;SDS011;12054;53.662;10.126;2023-04-25T09:26:08;7.82;;;1.60;;
23747;SDS011;12054;53.662;10.126;2023-04-25T09:28:34;7.20;;;1.50;;
23747;SDS011;12054;53.662;10.126;2023-04-25T09:31:01;6.53;;;1.40;;
23747;SDS011;12054;53.662;10.126;2023-04-25T09:33:33;7.60;;;2.10;;
23747;SDS011;12054;53.662;10.126;2023-04-25T09:36:03;8.07;;;1.90;;
23747;SDS011;12054;53.662;10.126;2023-04-25T09:38:43;11.02;;;1.98;;
23747;SDS011;12054;53.662;10.126;2023-04-25T09:41:10;7.63;;;1.80;;
23747;SDS011;12054;53.662;10.126;2023-04-25T09:43:36;8.85;;;1.27;;
23747;SDS011;12054;53.662;10.126;2023-04-25T09:46:02;8.82;;;1.42;;
23747;SDS011;12054;53.662;10.126;2023-04-25T09:48:36;4.40;;;1.40;;
23747;SDS011;12054;53.662;10.126;2023-04-25T09:51:13;3.40;;;1.33;;
23747;SDS011;12054;53.662;10.126;2023-04-25T09:53:42;4.97;;;1.50;;
23747;SDS011;12054;53.662;10.126;2023-04-25T09:56:11;7.93;;;1.60;;
23747;SDS011;12054;53.662;10.126;2023-04-25T09:58:38;7.20;;;1.52;;
23747;SDS011;12054;53.662;10.126;2023-04-25T10:01:06;5.40;;;1.50;;
23747;SDS011;12054;53.662;10.126;2023-04-25T10:03:33;5.45;;;1.45;;
23747;SDS011;12054;53.662;10.126;2023-04-25T10:06:02;4.93;;;1.23;;
23747;SDS011;12054;53.662;10.126;2023-04-25T10:08:33;6.25;;;1.33;;
23747;SDS011;12054;53.662;10.126;2023-04-25T10:11:00;4.03;;;1.30;;
23747;SDS011;12054;53.662;10.126;2023-04-25T10:13:28;6.43;;;1.40;;
23747;SDS011;12054;53.662;10.126;2023-04-25T10:15:57;7.10;;;1.67;;
23747;SDS011;12054;53.662;10.126;2023-04-25T10:18:24;3.85;;;1.45;;
23747;SDS011;12054;53.662;10.126;2023-04-25T10:20:51;7.28;;;1.55;;
23747;SDS011;12054;53.662;10.126;2023-04-25T10:23:18;5.07;;;1.02;;
23747;SDS011;12054;53.662;10.126;2023-04-25T10:25:44;5.07;;;0.90;;
23747;SDS011;12054;53.662;10.126;2023-04-25T10:28:13;3.67;;;0.82;;
23747;SDS011;12054;53.662;10.126;2023-04-25T10:30:56;8.65;;;1.38;;
23747;SDS011;12054;53.662;10.126;2023-04-25T10:33:28;3.97;;;1.10;;
23747;SDS011;12054;53.662;10.126;2023-04-25T10:36:11;4.18;;;1.00;;
23747;SDS011;12054;53.662;10.126;2023-04-25T10:38:38;5.55;;;1.48;;
23747;SDS011;12054;53.662;10.126;2023-04-25T10:41:04;6.20;;;1.50;;
23747;SDS011;12054;53.662;10.126;2023-04-25T10:43:43;4.38;;;1.25;;
23747;SDS011;12054;53.662;10.126;2023-04-25T10:46:13;7.70;;;1.10;;
23747;SDS011;12054;53.662;10.126;2023-04-25T10:48:43;5.93;;;1.40;;
23747;SDS011;12054;53.662;10.126;2023-04-25T10:51:21;5.93;;;1.40;;
23747;SDS011;12054;53.662;10.126;2023-04-25T10:56:29;6.50;;;1.35;;
23747;SDS011;12054;53.662;10.126;2023-04-25T11:01:39;1.98;;;0.60;;
23747;SDS011;12054;53.662;10.126;2023-04-25T11:04:18;5.32;;;0.90;;
23747;SDS011;12054;53.662;10.126;2023-04-25T11:06:48;6.10;;;1.20;;
23747;SDS011;12054;53.662;10.126;2023-04-25T11:09:19;8.15;;;1.40;;
23747;SDS011;12054;53.662;10.126;2023-04-25T11:11:55;8.65;;;1.40;;
23747;SDS011;12054;53.662;10.126;2023-04-25T11:14:22;5.95;;;1.50;;
23747;SDS011;12054;53.662;10.126;2023-04-25T11:16:54;7.57;;;1.25;;
23747;SDS011;12054;53.662;10.126;2023-04-25T11:19:24;2.65;;;0.65;;
23747;SDS011;12054;53.662;10.126;2023-04-25T11:21:51;4.32;;;1.15;;
23747;SDS011;12054;53.662;10.126;2023-04-25T11:24:27;2.50;;;0.90;;
23747;SDS011;12054;53.662;10.126;2023-04-25T11:26:53;1.50;;;0.80;;
23747;SDS011;12054;53.662;10.126;2023-04-25T11:29:22;3.65;;;0.90;;
23747;SDS011;12054;53.662;10.126;2023-04-25T11:31:48;5.47;;;1.00;;
23747;SDS011;12054;53.662;10.126;2023-04-25T11:34:17;5.10;;;0.98;;
23747;SDS011;12054;53.662;10.126;2023-04-25T11:36:43;5.18;;;0.90;;
23747;SDS011;12054;53.662;10.126;2023-04-25T11:39:10;5.35;;;1.00;;
23747;SDS011;12054;53.662;10.126;2023-04-25T11:41:37;3.60;;;1.13;;
23747;SDS011;12054;53.662;10.126;2023-04-25T11:44:03;6.50;;;1.55;;
23747;SDS011;12054;53.662;10.126;2023-04-25T11:46:29;6.38;;;1.08;;
23747;SDS011;12054;53.662;10.126;2023-04-25T11:48:55;4.07;;;1.30;;
23747;SDS011;12054;53.662;10.126;2023-04-25T11:51:21;3.47;;;0.98;;
23747;SDS011;12054;53.662;10.126;2023-04-25T11:53:46;4.20;;;1.05;;
23747;SDS011;12054;53.662;10.126;2023-04-25T11:56:12;5.25;;;1.00;;
23747;SDS011;12054;53.662;10.126;2023-04-25T11:58:54;2.30;;;0.85;;
23747;SDS011;12054;53.662;10.126;2023-04-25T12:03:55;3.35;;;0.70;;
23747;SDS011;12054;53.662;10.126;2023-04-25T12:06:25;6.57;;;1.00;;
23747;SDS011;12054;53.662;10.126;2023-04-25T12:09:01;2.58;;;0.90;;
23747;SDS011;12054;53.662;10.126;2023-04-25T12:11:29;4.38;;;0.75;;
23747;SDS011;12054;53.662;10.126;2023-04-25T12:14:05;2.20;;;0.60;;
23747;SDS011;12054;53.662;10.126;2023-04-25T12:16:43;5.22;;;1.00;;
23747;SDS011;12054;53.662;10.126;2023-04-25T12:19:09;4.70;;;1.10;;
23747;SDS011;12054;53.662;10.126;2023-04-25T12:21:38;3.85;;;1.17;;
23747;SDS011;12054;53.662;10.126;2023-04-25T12:27:03;4.03;;;1.10;;
23747;SDS011;12054;53.662;10.126;2023-04-25T12:29:31;2.83;;;0.80;;
23747;SDS011;12054;53.662;10.126;2023-04-25T12:31:58;6.57;;;1.17;;
23747;SDS011;12054;53.662;10.126;2023-04-25T12:34:24;4.93;;;1.60;;
23747;SDS011;12054;53.662;10.126;2023-04-25T12:36:50;4.32;;;1.38;;
23747;SDS011;12054;53.662;10.126;2023-04-25T12:39:20;3.20;;;0.90;;
23747;SDS011;12054;53.662;10.126;2023-04-25T12:41:47;2.58;;;0.80;;
23747;SDS011;12054;53.662;10.126;2023-04-25T12:44:14;5.15;;;1.10;;
23747;SDS011;12054;53.662;10.126;2023-04-25T12:46:40;6.82;;;1.50;;
23747;SDS011;12054;53.662;10.126;2023-04-25T12:49:06;6.82;;;1.20;;
23747;SDS011;12054;53.662;10.126;2023-04-25T12:51:36;7.32;;;1.10;;
23747;SDS011;12054;53.662;10.126;2023-04-25T12:54:03;4.47;;;1.08;;
23747;SDS011;12054;53.662;10.126;2023-04-25T12:56:30;5.85;;;1.38;;
23747;SDS011;12054;53.662;10.126;2023-04-25T12:58:55;3.67;;;1.17;;
23747;SDS011;12054;53.662;10.126;2023-04-25T13:01:22;6.57;;;1.27;;
23747;SDS011;12054;53.662;10.126;2023-04-25T13:03:48;5.88;;;1.70;;
23747;SDS011;12054;53.662;10.126;2023-04-25T13:06:14;6.28;;;1.23;;
23747;SDS011;12054;53.662;10.126;2023-04-25T13:08:40;3.35;;;1.15;;
23747;SDS011;12054;53.662;10.126;2023-04-25T13:11:06;3.95;;;1.30;;
23747;SDS011;12054;53.662;10.126;2023-04-25T13:13:32;3.67;;;1.20;;
23747;SDS011;12054;53.662;10.126;2023-04-25T13:15:59;4.18;;;1.10;;
23747;SDS011;12054;53.662;10.126;2023-04-25T13:18:26;4.97;;;1.08;;
23747;SDS011;12054;53.662;10.126;2023-04-25T13:20:52;2.80;;;0.90;;
23747;SDS011;12054;53.662;10.126;2023-04-25T13:23:18;8.43;;;1.52;;
23747;SDS011;12054;53.662;10.126;2023-04-25T13:25:45;5.65;;;1.52;;
23747;SDS011;12054;53.662;10.126;2023-04-25T13:28:11;5.32;;;1.58;;
23747;SDS011;12054;53.662;10.126;2023-04-25T13:30:36;4.90;;;1.38;;
23747;SDS011;12054;53.662;10.126;2023-04-25T13:33:02;9.63;;;1.80;;
23747;SDS011;12054;53.662;10.126;2023-04-25T13:35:31;9.50;;;1.92;;
23747;SDS011;12054;53.662;10.126;2023-04-25T13:37:58;10.23;;;1.80;;
23747;SDS011;12054;53.662;10.126;2023-04-25T13:40:24;4.82;;;1.33;;
23747;SDS011;12054;53.662;10.126;2023-04-25T13:42:50;8.10;;;1.48;;
23747;SDS011;12054;53.662;10.126;2023-04-25T13:45:16;4.72;;;1.75;;
23747;SDS011;12054;53.662;10.126;2023-04-25T13:47:41;4.50;;;1.60;;
23747;SDS011;12054;53.662;10.126;2023-04-25T13:50:07;4.20;;;1.15;;
23747;SDS011;12054;53.662;10.126;2023-04-25T13:52:33;8.52;;;1.42;;
23747;SDS011;12054;53.662;10.126;2023-04-25T13:54:59;4.72;;;1.40;;
23747;SDS011;12054;53.662;10.126;2023-04-25T13:57:25;6.10;;;1.30;;
23747;SDS011;12054;53.662;10.126;2023-04-25T13:59:50;4.28;;;1.20;;
23747;SDS011;12054;53.662;10.126;2023-04-25T14:02:17;8.05;;;1.60;;
23747;SDS011;12054;53.662;10.126;2023-04-25T14:04:43;9.70;;;1.80;;
23747;SDS011;12054;53.662;10.126;2023-04-25T14:07:09;4.00;;;1.67;;
23747;SDS011;12054;53.662;10.126;2023-04-25T14:09:36;6.28;;;1.35;;
23747;SDS011;12054;53.662;10.126;2023-04-25T14:12:01;7.00;;;1.30;;
23747;SDS011;12054;53.662;10.126;2023-04-25T14:14:27;8.95;;;1.40;;
23747;SDS011;12054;53.662;10.126;2023-04-25T14:16:53;4.93;;;1.65;;
23747;SDS011;12054;53.662;10.126;2023-04-25T14:19:19;4.50;;;1.25;;
23747;SDS011;12054;53.662;10.126;2023-04-25T14:21:45;6.20;;;1.38;;
23747;SDS011;12054;53.662;10.126;2023-04-25T14:24:11;7.18;;;1.58;;
23747;SDS011;12054;53.662;10.126;2023-04-25T14:26:38;5.18;;;1.20;;
23747;SDS011;12054;53.662;10.126;2023-04-25T14:29:06;4.30;;;1.17;;
23747;SDS011;12054;53.662;10.126;2023-04-25T14:31:33;5.15;;;1.40;;
23747;SDS011;12054;53.662;10.126;2023-04-25T14:33:59;6.05;;;1.75;;
23747;SDS011;12054;53.662;10.126;2023-04-25T14:36:25;4.18;;;1.08;;
23747;SDS011;12054;53.662;10.126;2023-04-25T14:38:52;5.55;;;1.20;;
23747;SDS011;12054;53.662;10.126;2023-04-25T14:41:18;7.88;;;1.23;;
23747;SDS011;12054;53.662;10.126;2023-04-25T14:43:43;5.18;;;1.27;;